sensor_id;sensor_type;location;lat;lon;timestamp;temperature;humidity
5280;DHT22;2663;53.588;10.010;2022-12-29T00:01:41;9.40;99.90
5280;DHT22;2663;53.588;10.010;2022-12-29T00:04:12;9.40;99.90
5280;DHT22;2663;53.588;10.010;2022-12-29T00:06:42;9.50;99.90
5280;DHT22;2663;53.588;10.010;2022-12-29T00:09:11;9.50;99.90
5280;DHT22;2663;53.588;10.010;2022-12-29T00:11:39;9.50;99.90
5280;DHT22;2663;53.588;10.010;2022-12-29T00:14:06;9.50;99.90
5280;DHT22;2663;53.588;10.010;2022-12-29T00:16:52;9.60;99.90
5280;DHT22;2663;53.588;10.010;2022-12-29T00:19:19;9.60;99.90
5280;DHT22;2663;53.588;10.010;2022-12-29T00:22:05;9.60;99.90
5280;DHT22;2663;53.588;10.010;2022-12-29T00:24:50;9.70;99.90
5280;DHT22;2663;53.588;10.010;2022-12-29T00:27:35;9.70;99.90
5280;DHT22;2663;53.588;10.010;2022-12-29T00:30:22;9.70;99.90
5280;DHT22;2663;53.588;10.010;2022-12-29T00:33:18;9.70;99.90
5280;DHT22;2663;53.588;10.010;2022-12-29T00:36:23;9.70;99.90
5280;DHT22;2663;53.588;10.010;2022-12-29T00:38:53;9.70;99.90
5280;DHT22;2663;53.588;10.010;2022-12-29T00:41:39;9.80;99.90
5280;DHT22;2663;53.588;10.010;2022-12-29T00:44:25;9.80;99.90
5280;DHT22;2663;53.588;10.010;2022-12-29T00:46:51;9.80;99.90
5280;DHT22;2663;53.588;10.010;2022-12-29T00:49:18;9.80;99.90
5280;DHT22;2663;53.588;10.010;2022-12-29T00:54:34;9.80;99.90
5280;DHT22;2663;53.588;10.010;2022-12-29T00:57:02;9.90;99.90
5280;DHT22;2663;53.588;10.010;2022-12-29T00:59:28;9.90;99.90
5280;DHT22;2663;53.588;10.010;2022-12-29T01:01:55;10.00;99.90
5280;DHT22;2663;53.588;10.010;2022-12-29T01:04:24;10.00;99.90
5280;DHT22;2663;53.588;10.010;2022-12-29T01:06:51;10.00;99.90
5280;DHT22;2663;53.588;10.010;2022-12-29T01:09:19;10.00;99.90
5280;DHT22;2663;53.588;10.010;2022-12-29T01:12:06;10.00;99.90
5280;DHT22;2663;53.588;10.010;2022-12-29T01:14:33;10.10;99.90
5280;DHT22;2663;53.588;10.010;2022-12-29T01:16:59;10.10;99.90
5280;DHT22;2663;53.588;10.010;2022-12-29T01:19:27;10.10;99.90
5280;DHT22;2663;53.588;10.010;2022-12-29T01:21:53;10.10;99.90
5280;DHT22;2663;53.588;10.010;2022-12-29T01:24:20;10.10;99.90
5280;DHT22;2663;53.588;10.010;2022-12-29T01:26:48;10.20;99.90
5280;DHT22;2663;53.588;10.010;2022-12-29T01:29:15;10.20;99.90
5280;DHT22;2663;53.588;10.010;2022-12-29T01:31:42;10.20;99.90
5280;DHT22;2663;53.588;10.010;2022-12-29T01:34:09;10.20;99.90
5280;DHT22;2663;53.588;10.010;2022-12-29T01:36:36;10.20;99.90
5280;DHT22;2663;53.588;10.010;2022-12-29T01:39:03;10.20;99.90
5280;DHT22;2663;53.588;10.010;2022-12-29T01:41:29;10.20;99.90
5280;DHT22;2663;53.588;10.010;2022-12-29T01:43:58;10.20;99.90
5280;DHT22;2663;53.588;10.010;2022-12-29T01:46:36;10.20;99.90
5280;DHT22;2663;53.588;10.010;2022-12-29T01:49:14;10.10;99.90
5280;DHT22;2663;53.588;10.010;2022-12-29T01:52:04;10.20;99.90
5280;DHT22;2663;53.588;10.010;2022-12-29T01:54:36;10.20;99.90
5280;DHT22;2663;53.588;10.010;2022-12-29T01:57:08;10.20;99.90
5280;DHT22;2663;53.588;10.010;2022-12-29T01:59:40;10.20;99.90
5280;DHT22;2663;53.588;10.010;2022-12-29T02:02:07;10.20;99.90
5280;DHT22;2663;53.588;10.010;2022-12-29T02:04:35;10.20;99.90
5280;DHT22;2663;53.588;10.010;2022-12-29T02:07:11;10.20;99.90
5280;DHT22;2663;53.588;10.010;2022-12-29T02:09:40;10.20;99.90
5280;DHT22;2663;53.588;10.010;2022-12-29T02:12:09;10.30;99.90
5280;DHT22;2663;53.588;10.010;2022-12-29T02:14:36;10.30;99.90
5280;DHT22;2663;53.588;10.010;2022-12-29T02:26:28;10.40;99.90
5280;DHT22;2663;53.588;10.010;2022-12-29T02:32:13;10.50;99.90
5280;DHT22;2663;53.588;10.010;2022-12-29T02:35:06;10.50;99.90
5280;DHT22;2663;53.588;10.010;2022-12-29T02:38:06;10.60;99.90
5280;DHT22;2663;53.588;10.010;2022-12-29T02:41:00;10.60;99.90
5280;DHT22;2663;53.588;10.010;2022-12-29T02:49:13;10.50;99.90
5280;DHT22;2663;53.588;10.010;2022-12-29T02:51:50;10.40;99.90
5280;DHT22;2663;53.588;10.010;2022-12-29T02:54:19;10.50;99.90
5280;DHT22;2663;53.588;10.010;2022-12-29T02:57:26;10.40;99.90
5280;DHT22;2663;53.588;10.010;2022-12-29T03:00:07;10.40;99.90
5280;DHT22;2663;53.588;10.010;2022-12-29T03:02:57;10.50;99.90
5280;DHT22;2663;53.588;10.010;2022-12-29T03:08:48;8.80;99.90
5280;DHT22;2663;53.588;10.010;2022-12-29T03:11:16;10.40;99.90
5280;DHT22;2663;53.588;10.010;2022-12-29T03:14:17;10.40;99.90
5280;DHT22;2663;53.588;10.010;2022-12-29T03:17:11;10.40;99.90
5280;DHT22;2663;53.588;10.010;2022-12-29T03:19:47;10.40;99.90
5280;DHT22;2663;53.588;10.010;2022-12-29T03:22:21;10.50;99.90
5280;DHT22;2663;53.588;10.010;2022-12-29T03:25:02;10.50;99.90
5280;DHT22;2663;53.588;10.010;2022-12-29T03:27:34;10.40;99.90
5280;DHT22;2663;53.588;10.010;2022-12-29T03:30:03;10.40;99.90
5280;DHT22;2663;53.588;10.010;2022-12-29T03:32:36;10.40;99.90
5280;DHT22;2663;53.588;10.010;2022-12-29T03:35:06;10.40;99.90
5280;DHT22;2663;53.588;10.010;2022-12-29T03:37:41;10.50;99.90
5280;DHT22;2663;53.588;10.010;2022-12-29T03:40:08;10.40;99.90
5280;DHT22;2663;53.588;10.010;2022-12-29T03:42:36;10.50;99.90
5280;DHT22;2663;53.588;10.010;2022-12-29T03:45:04;10.40;99.90
5280;DHT22;2663;53.588;10.010;2022-12-29T03:47:32;10.30;99.90
5280;DHT22;2663;53.588;10.010;2022-12-29T03:49:59;10.30;99.90
5280;DHT22;2663;53.588;10.010;2022-12-29T03:52:26;10.40;99.90
5280;DHT22;2663;53.588;10.010;2022-12-29T03:54:52;10.40;99.90
5280;DHT22;2663;53.588;10.010;2022-12-29T03:57:19;10.50;99.90
5280;DHT22;2663;53.588;10.010;2022-12-29T03:59:45;10.50;99.90
5280;DHT22;2663;53.588;10.010;2022-12-29T04:02:12;10.50;99.90
5280;DHT22;2663;53.588;10.010;2022-12-29T04:04:40;10.50;99.90
5280;DHT22;2663;53.588;10.010;2022-12-29T04:07:06;9.30;99.90
5280;DHT22;2663;53.588;10.010;2022-12-29T04:09:33;10.50;99.90
5280;DHT22;2663;53.588;10.010;2022-12-29T04:12:00;10.60;99.90
5280;DHT22;2663;53.588;10.010;2022-12-29T04:14:26;10.60;99.90
5280;DHT22;2663;53.588;10.010;2022-12-29T04:16:53;10.70;99.90
5280;DHT22;2663;53.588;10.010;2022-12-29T04:19:20;10.70;99.90
5280;DHT22;2663;53.588;10.010;2022-12-29T04:21:46;10.80;99.90
5280;DHT22;2663;53.588;10.010;2022-12-29T04:24:13;10.70;99.90
5280;DHT22;2663;53.588;10.010;2022-12-29T04:26:40;10.70;99.90
5280;DHT22;2663;53.588;10.010;2022-12-29T04:29:08;10.80;99.90
5280;DHT22;2663;53.588;10.010;2022-12-29T04:31:34;10.80;99.90
5280;DHT22;2663;53.588;10.010;2022-12-29T04:34:01;12.70;99.90
5280;DHT22;2663;53.588;10.010;2022-12-29T04:36:28;10.70;99.90
5280;DHT22;2663;53.588;10.010;2022-12-29T04:38:55;12.50;99.90
5280;DHT22;2663;53.588;10.010;2022-12-29T04:41:22;10.80;99.90
5280;DHT22;2663;53.588;10.010;2022-12-29T04:43:49;10.80;99.90
5280;DHT22;2663;53.588;10.010;2022-12-29T04:46:16;10.80;99.90
5280;DHT22;2663;53.588;10.010;2022-12-29T04:48:44;10.80;99.90
5280;DHT22;2663;53.588;10.010;2022-12-29T04:51:10;10.80;99.90
5280;DHT22;2663;53.588;10.010;2022-12-29T04:53:37;10.80;99.90
5280;DHT22;2663;53.588;10.010;2022-12-29T04:56:04;9.70;99.90
5280;DHT22;2663;53.588;10.010;2022-12-29T04:58:30;10.80;99.90
5280;DHT22;2663;53.588;10.010;2022-12-29T05:00:57;10.80;99.90
5280;DHT22;2663;53.588;10.010;2022-12-29T05:03:24;10.80;99.90
5280;DHT22;2663;53.588;10.010;2022-12-29T05:05:53;10.80;99.90
5280;DHT22;2663;53.588;10.010;2022-12-29T05:08:21;10.80;99.90
5280;DHT22;2663;53.588;10.010;2022-12-29T05:10:53;11.50;99.90
5280;DHT22;2663;53.588;10.010;2022-12-29T05:13:20;10.80;99.90
5280;DHT22;2663;53.588;10.010;2022-12-29T05:15:51;10.80;99.90
5280;DHT22;2663;53.588;10.010;2022-12-29T05:18:19;10.80;99.90
5280;DHT22;2663;53.588;10.010;2022-12-29T05:20:46;10.80;99.90
5280;DHT22;2663;53.588;10.010;2022-12-29T05:23:14;10.70;99.90
5280;DHT22;2663;53.588;10.010;2022-12-29T05:25:41;10.70;99.90
5280;DHT22;2663;53.588;10.010;2022-12-29T05:28:07;10.80;99.90
5280;DHT22;2663;53.588;10.010;2022-12-29T05:30:34;10.80;99.90
5280;DHT22;2663;53.588;10.010;2022-12-29T05:33:01;10.80;99.90
5280;DHT22;2663;53.588;10.010;2022-12-29T05:35:27;10.90;99.90
5280;DHT22;2663;53.588;10.010;2022-12-29T05:37:54;10.80;99.90
5280;DHT22;2663;53.588;10.010;2022-12-29T05:40:21;10.90;99.90
5280;DHT22;2663;53.588;10.010;2022-12-29T05:42:47;10.90;99.90
5280;DHT22;2663;53.588;10.010;2022-12-29T05:45:14;10.00;99.90
5280;DHT22;2663;53.588;10.010;2022-12-29T05:47:41;11.00;99.90
5280;DHT22;2663;53.588;10.010;2022-12-29T05:50:07;11.00;99.90
5280;DHT22;2663;53.588;10.010;2022-12-29T05:52:34;11.00;99.90
5280;DHT22;2663;53.588;10.010;2022-12-29T05:55:01;11.10;99.90
5280;DHT22;2663;53.588;10.010;2022-12-29T05:57:27;11.10;99.90
5280;DHT22;2663;53.588;10.010;2022-12-29T05:59:54;11.20;99.90
5280;DHT22;2663;53.588;10.010;2022-12-29T06:02:21;11.20;99.90
5280;DHT22;2663;53.588;10.010;2022-12-29T06:04:48;11.30;99.90
5280;DHT22;2663;53.588;10.010;2022-12-29T06:07:14;11.20;99.90
5280;DHT22;2663;53.588;10.010;2022-12-29T06:09:41;11.30;99.90
5280;DHT22;2663;53.588;10.010;2022-12-29T06:12:07;11.30;99.90
5280;DHT22;2663;53.588;10.010;2022-12-29T06:14:34;11.40;99.90
5280;DHT22;2663;53.588;10.010;2022-12-29T06:17:01;11.40;99.90
5280;DHT22;2663;53.588;10.010;2022-12-29T06:19:27;11.50;99.90
5280;DHT22;2663;53.588;10.010;2022-12-29T06:21:54;11.50;99.90
5280;DHT22;2663;53.588;10.010;2022-12-29T06:24:21;11.40;99.90
5280;DHT22;2663;53.588;10.010;2022-12-29T06:26:48;11.40;99.90
5280;DHT22;2663;53.588;10.010;2022-12-29T06:29:14;11.30;99.90
5280;DHT22;2663;53.588;10.010;2022-12-29T06:31:46;11.30;99.90
5280;DHT22;2663;53.588;10.010;2022-12-29T06:34:13;11.30;99.90
5280;DHT22;2663;53.588;10.010;2022-12-29T06:36:40;11.30;99.90
5280;DHT22;2663;53.588;10.010;2022-12-29T06:39:07;11.20;99.90
5280;DHT22;2663;53.588;10.010;2022-12-29T06:41:33;11.20;99.90
5280;DHT22;2663;53.588;10.010;2022-12-29T06:44:00;11.20;99.90
5280;DHT22;2663;53.588;10.010;2022-12-29T06:46:26;11.00;99.90
5280;DHT22;2663;53.588;10.010;2022-12-29T06:48:53;11.10;99.90
5280;DHT22;2663;53.588;10.010;2022-12-29T06:51:20;12.00;99.90
5280;DHT22;2663;53.588;10.010;2022-12-29T06:53:46;13.10;99.90
5280;DHT22;2663;53.588;10.010;2022-12-29T06:56:13;12.70;99.90
5280;DHT22;2663;53.588;10.010;2022-12-29T06:58:40;12.80;99.90
5280;DHT22;2663;53.588;10.010;2022-12-29T07:01:07;12.80;99.90
5280;DHT22;2663;53.588;10.010;2022-12-29T07:03:33;12.70;99.90
5280;DHT22;2663;53.588;10.010;2022-12-29T07:06:00;12.30;99.90
5280;DHT22;2663;53.588;10.010;2022-12-29T07:08:27;11.80;99.90
5280;DHT22;2663;53.588;10.010;2022-12-29T07:10:54;11.60;99.90
5280;DHT22;2663;53.588;10.010;2022-12-29T07:13:20;11.50;99.90
5280;DHT22;2663;53.588;10.010;2022-12-29T07:15:47;11.30;99.90
5280;DHT22;2663;53.588;10.010;2022-12-29T07:18:14;11.30;99.90
5280;DHT22;2663;53.588;10.010;2022-12-29T07:20:40;11.30;99.90
5280;DHT22;2663;53.588;10.010;2022-12-29T07:23:07;11.30;99.90
5280;DHT22;2663;53.588;10.010;2022-12-29T07:25:34;11.20;99.90
5280;DHT22;2663;53.588;10.010;2022-12-29T07:28:03;11.20;99.90
5280;DHT22;2663;53.588;10.010;2022-12-29T07:30:30;11.20;99.90
5280;DHT22;2663;53.588;10.010;2022-12-29T07:32:57;11.20;99.90
5280;DHT22;2663;53.588;10.010;2022-12-29T07:35:23;11.20;99.90
5280;DHT22;2663;53.588;10.010;2022-12-29T07:37:50;11.20;99.90
5280;DHT22;2663;53.588;10.010;2022-12-29T07:40:17;11.20;99.90
5280;DHT22;2663;53.588;10.010;2022-12-29T07:42:43;11.20;99.90
5280;DHT22;2663;53.588;10.010;2022-12-29T07:45:10;11.20;99.90
5280;DHT22;2663;53.588;10.010;2022-12-29T07:47:37;11.20;99.90
5280;DHT22;2663;53.588;10.010;2022-12-29T07:50:04;11.20;99.90
5280;DHT22;2663;53.588;10.010;2022-12-29T07:52:31;11.20;99.90
5280;DHT22;2663;53.588;10.010;2022-12-29T07:54:58;11.20;99.90
5280;DHT22;2663;53.588;10.010;2022-12-29T07:57:25;11.20;99.90
5280;DHT22;2663;53.588;10.010;2022-12-29T07:59:57;11.20;99.90
5280;DHT22;2663;53.588;10.010;2022-12-29T08:02:24;11.10;99.90
5280;DHT22;2663;53.588;10.010;2022-12-29T08:04:52;11.10;99.90
5280;DHT22;2663;53.588;10.010;2022-12-29T08:07:19;11.10;99.90
5280;DHT22;2663;53.588;10.010;2022-12-29T08:09:46;11.10;99.90
5280;DHT22;2663;53.588;10.010;2022-12-29T08:12:12;11.10;99.90
5280;DHT22;2663;53.588;10.010;2022-12-29T08:14:39;11.00;99.90
5280;DHT22;2663;53.588;10.010;2022-12-29T08:17:06;11.00;99.90
5280;DHT22;2663;53.588;10.010;2022-12-29T08:19:32;11.00;99.90
5280;DHT22;2663;53.588;10.010;2022-12-29T08:21:59;11.00;99.90
5280;DHT22;2663;53.588;10.010;2022-12-29T08:24:34;10.90;99.90
5280;DHT22;2663;53.588;10.010;2022-12-29T08:27:01;10.90;99.90
5280;DHT22;2663;53.588;10.010;2022-12-29T08:29:41;10.90;99.90
5280;DHT22;2663;53.588;10.010;2022-12-29T08:32:08;10.90;99.90
5280;DHT22;2663;53.588;10.010;2022-12-29T08:34:34;10.90;99.90
5280;DHT22;2663;53.588;10.010;2022-12-29T08:37:01;10.90;99.90
5280;DHT22;2663;53.588;10.010;2022-12-29T08:39:28;11.00;99.90
5280;DHT22;2663;53.588;10.010;2022-12-29T08:41:55;11.00;99.90
5280;DHT22;2663;53.588;10.010;2022-12-29T08:44:21;11.00;99.90
5280;DHT22;2663;53.588;10.010;2022-12-29T08:46:48;11.00;99.90
5280;DHT22;2663;53.588;10.010;2022-12-29T08:49:15;11.00;99.90
5280;DHT22;2663;53.588;10.010;2022-12-29T08:51:41;11.00;99.90
5280;DHT22;2663;53.588;10.010;2022-12-29T08:54:08;11.00;99.90
5280;DHT22;2663;53.588;10.010;2022-12-29T08:56:35;11.10;99.90
5280;DHT22;2663;53.588;10.010;2022-12-29T08:59:02;11.00;99.90
5280;DHT22;2663;53.588;10.010;2022-12-29T09:01:28;11.00;99.90
5280;DHT22;2663;53.588;10.010;2022-12-29T09:03:57;11.00;99.90
5280;DHT22;2663;53.588;10.010;2022-12-29T09:06:43;11.20;99.90
5280;DHT22;2663;53.588;10.010;2022-12-29T09:09:10;11.20;99.90
5280;DHT22;2663;53.588;10.010;2022-12-29T09:11:37;11.10;99.90
5280;DHT22;2663;53.588;10.010;2022-12-29T09:14:04;11.20;99.90
5280;DHT22;2663;53.588;10.010;2022-12-29T09:16:31;11.20;99.90
5280;DHT22;2663;53.588;10.010;2022-12-29T09:18:58;11.20;99.90
5280;DHT22;2663;53.588;10.010;2022-12-29T09:21:24;11.20;99.90
5280;DHT22;2663;53.588;10.010;2022-12-29T09:23:52;11.20;99.90
5280;DHT22;2663;53.588;10.010;2022-12-29T09:26:18;11.30;99.90
5280;DHT22;2663;53.588;10.010;2022-12-29T09:28:45;11.30;99.90
5280;DHT22;2663;53.588;10.010;2022-12-29T09:31:12;11.30;99.90
5280;DHT22;2663;53.588;10.010;2022-12-29T09:33:40;11.30;99.90
5280;DHT22;2663;53.588;10.010;2022-12-29T09:36:08;11.40;99.90
5280;DHT22;2663;53.588;10.010;2022-12-29T09:38:34;11.40;99.90
5280;DHT22;2663;53.588;10.010;2022-12-29T09:41:19;11.30;99.90
5280;DHT22;2663;53.588;10.010;2022-12-29T09:44:02;11.30;99.90
5280;DHT22;2663;53.588;10.010;2022-12-29T09:46:38;11.30;99.90
5280;DHT22;2663;53.588;10.010;2022-12-29T09:51:52;11.30;99.90
5280;DHT22;2663;53.588;10.010;2022-12-29T09:54:31;11.30;99.90
5280;DHT22;2663;53.588;10.010;2022-12-29T09:57:00;11.20;99.90
5280;DHT22;2663;53.588;10.010;2022-12-29T09:59:43;11.20;99.90
5280;DHT22;2663;53.588;10.010;2022-12-29T10:03:02;11.20;99.90
5280;DHT22;2663;53.588;10.010;2022-12-29T10:05:39;11.20;99.90
5280;DHT22;2663;53.588;10.010;2022-12-29T10:08:30;11.20;99.90
5280;DHT22;2663;53.588;10.010;2022-12-29T10:14:15;11.30;99.90
5280;DHT22;2663;53.588;10.010;2022-12-29T10:17:02;11.30;99.90
5280;DHT22;2663;53.588;10.010;2022-12-29T10:25:12;13.10;99.90
5280;DHT22;2663;53.588;10.010;2022-12-29T10:27:40;11.30;99.90
5280;DHT22;2663;53.588;10.010;2022-12-29T10:30:12;11.30;99.90
5280;DHT22;2663;53.588;10.010;2022-12-29T10:32:51;11.20;99.90
5280;DHT22;2663;53.588;10.010;2022-12-29T10:35:23;11.20;99.90
5280;DHT22;2663;53.588;10.010;2022-12-29T10:41:11;11.20;99.90
5280;DHT22;2663;53.588;10.010;2022-12-29T10:43:46;11.30;99.90
5280;DHT22;2663;53.588;10.010;2022-12-29T10:46:17;11.30;99.90
5280;DHT22;2663;53.588;10.010;2022-12-29T10:48:45;11.40;99.90
5280;DHT22;2663;53.588;10.010;2022-12-29T10:51:25;11.50;99.90
5280;DHT22;2663;53.588;10.010;2022-12-29T10:53:59;11.50;99.90
5280;DHT22;2663;53.588;10.010;2022-12-29T10:56:39;11.50;99.90
5280;DHT22;2663;53.588;10.010;2022-12-29T10:59:24;11.50;99.90
5280;DHT22;2663;53.588;10.010;2022-12-29T11:02:05;11.50;99.90
5280;DHT22;2663;53.588;10.010;2022-12-29T11:07:25;11.60;99.90
5280;DHT22;2663;53.588;10.010;2022-12-29T11:09:53;11.50;99.90
5280;DHT22;2663;53.588;10.010;2022-12-29T11:12:29;11.50;99.90
5280;DHT22;2663;53.588;10.010;2022-12-29T11:17:47;11.40;99.90
5280;DHT22;2663;53.588;10.010;2022-12-29T11:22:55;11.50;99.90
5280;DHT22;2663;53.588;10.010;2022-12-29T11:25:21;11.50;99.90
5280;DHT22;2663;53.588;10.010;2022-12-29T11:28:16;11.50;99.90
5280;DHT22;2663;53.588;10.010;2022-12-29T11:30:43;11.50;99.90
5280;DHT22;2663;53.588;10.010;2022-12-29T11:33:09;11.50;99.90
5280;DHT22;2663;53.588;10.010;2022-12-29T11:35:45;11.50;99.90
5280;DHT22;2663;53.588;10.010;2022-12-29T11:38:20;11.50;99.90
5280;DHT22;2663;53.588;10.010;2022-12-29T11:40:49;11.50;99.90
5280;DHT22;2663;53.588;10.010;2022-12-29T11:43:33;11.50;99.90
5280;DHT22;2663;53.588;10.010;2022-12-29T11:46:02;11.50;99.90
5280;DHT22;2663;53.588;10.010;2022-12-29T11:48:37;11.50;99.90
5280;DHT22;2663;53.588;10.010;2022-12-29T11:51:06;11.50;99.90
5280;DHT22;2663;53.588;10.010;2022-12-29T11:53:41;11.50;99.90
5280;DHT22;2663;53.588;10.010;2022-12-29T11:56:13;11.50;99.90
5280;DHT22;2663;53.588;10.010;2022-12-29T11:58:41;11.40;99.90
5280;DHT22;2663;53.588;10.010;2022-12-29T12:01:34;11.40;99.90
5280;DHT22;2663;53.588;10.010;2022-12-29T12:04:03;11.40;99.90
5280;DHT22;2663;53.588;10.010;2022-12-29T12:06:33;11.40;99.90
5280;DHT22;2663;53.588;10.010;2022-12-29T12:09:07;11.40;99.90
5280;DHT22;2663;53.588;10.010;2022-12-29T12:11:39;11.40;99.90
5280;DHT22;2663;53.588;10.010;2022-12-29T12:16:55;11.30;99.90
5280;DHT22;2663;53.588;10.010;2022-12-29T12:19:32;11.30;99.90
5280;DHT22;2663;53.588;10.010;2022-12-29T12:25:00;11.20;99.90
5280;DHT22;2663;53.588;10.010;2022-12-29T12:27:33;11.20;99.90
5280;DHT22;2663;53.588;10.010;2022-12-29T12:30:18;11.20;99.90
5280;DHT22;2663;53.588;10.010;2022-12-29T12:32:50;11.20;99.90
5280;DHT22;2663;53.588;10.010;2022-12-29T12:41:13;11.20;99.90
5280;DHT22;2663;53.588;10.010;2022-12-29T12:44:00;11.20;99.90
5280;DHT22;2663;53.588;10.010;2022-12-29T12:49:35;11.10;99.90
5280;DHT22;2663;53.588;10.010;2022-12-29T12:52:33;11.60;99.90
5280;DHT22;2663;53.588;10.010;2022-12-29T12:55:25;11.20;99.90
5280;DHT22;2663;53.588;10.010;2022-12-29T13:06:57;11.10;99.90
5280;DHT22;2663;53.588;10.010;2022-12-29T13:09:42;11.20;99.90
5280;DHT22;2663;53.588;10.010;2022-12-29T13:20:54;11.30;99.90
5280;DHT22;2663;53.588;10.010;2022-12-29T13:23:32;11.30;99.90
5280;DHT22;2663;53.588;10.010;2022-12-29T13:29:04;11.20;99.90
5280;DHT22;2663;53.588;10.010;2022-12-29T13:34:23;11.00;99.90
5280;DHT22;2663;53.588;10.010;2022-12-29T13:36:58;10.90;99.90
5280;DHT22;2663;53.588;10.010;2022-12-29T13:39:32;10.80;99.90
5280;DHT22;2663;53.588;10.010;2022-12-29T13:42:02;10.70;99.90
5280;DHT22;2663;53.588;10.010;2022-12-29T13:44:41;10.70;99.90
5280;DHT22;2663;53.588;10.010;2022-12-29T13:47:27;10.70;99.90
5280;DHT22;2663;53.588;10.010;2022-12-29T13:49:57;10.70;99.90
5280;DHT22;2663;53.588;10.010;2022-12-29T13:52:36;10.60;99.90
5280;DHT22;2663;53.588;10.010;2022-12-29T14:00:27;10.60;99.90
5280;DHT22;2663;53.588;10.010;2022-12-29T14:03:49;10.60;99.90
5280;DHT22;2663;53.588;10.010;2022-12-29T14:06:33;10.50;99.90
5280;DHT22;2663;53.588;10.010;2022-12-29T14:09:42;10.50;99.90
5280;DHT22;2663;53.588;10.010;2022-12-29T14:12:55;10.20;99.90
5280;DHT22;2663;53.588;10.010;2022-12-29T14:15:21;9.20;99.90
5280;DHT22;2663;53.588;10.010;2022-12-29T14:18:18;9.20;99.90
5280;DHT22;2663;53.588;10.010;2022-12-29T14:21:10;9.10;99.90
5280;DHT22;2663;53.588;10.010;2022-12-29T14:23:46;9.20;99.90
5280;DHT22;2663;53.588;10.010;2022-12-29T14:28:56;9.10;99.90
5280;DHT22;2663;53.588;10.010;2022-12-29T14:31:41;9.10;99.90
5280;DHT22;2663;53.588;10.010;2022-12-29T14:37:00;9.10;99.90
5280;DHT22;2663;53.588;10.010;2022-12-29T14:39:41;9.10;99.90
5280;DHT22;2663;53.588;10.010;2022-12-29T14:45:02;9.20;99.90
5280;DHT22;2663;53.588;10.010;2022-12-29T14:47:34;9.20;99.90
5280;DHT22;2663;53.588;10.010;2022-12-29T14:52:56;9.20;99.90
5280;DHT22;2663;53.588;10.010;2022-12-29T14:55:40;9.20;99.90
5280;DHT22;2663;53.588;10.010;2022-12-29T14:58:16;9.20;99.90
5280;DHT22;2663;53.588;10.010;2022-12-29T15:00:45;9.20;99.90
5280;DHT22;2663;53.588;10.010;2022-12-29T15:03:38;9.30;99.90
5280;DHT22;2663;53.588;10.010;2022-12-29T15:06:11;9.20;99.90
5280;DHT22;2663;53.588;10.010;2022-12-29T15:08:44;9.20;99.90
5280;DHT22;2663;53.588;10.010;2022-12-29T15:11:19;9.20;99.90
5280;DHT22;2663;53.588;10.010;2022-12-29T15:13:46;9.30;99.90
5280;DHT22;2663;53.588;10.010;2022-12-29T15:16:33;9.30;99.90
5280;DHT22;2663;53.588;10.010;2022-12-29T15:19:02;9.40;99.90
5280;DHT22;2663;53.588;10.010;2022-12-29T15:21:31;9.30;99.90
5280;DHT22;2663;53.588;10.010;2022-12-29T15:23:58;9.30;99.90
5280;DHT22;2663;53.588;10.010;2022-12-29T15:26:42;9.30;99.90
5280;DHT22;2663;53.588;10.010;2022-12-29T15:29:38;9.90;99.90
5280;DHT22;2663;53.588;10.010;2022-12-29T15:34:47;11.30;99.90
5280;DHT22;2663;53.588;10.010;2022-12-29T15:37:21;11.00;99.90
5280;DHT22;2663;53.588;10.010;2022-12-29T15:39:49;10.50;99.90
5280;DHT22;2663;53.588;10.010;2022-12-29T15:44:56;10.10;99.90
5280;DHT22;2663;53.588;10.010;2022-12-29T15:47:35;9.90;99.90
5280;DHT22;2663;53.588;10.010;2022-12-29T15:52:46;9.80;99.90
5280;DHT22;2663;53.588;10.010;2022-12-29T15:55:29;9.80;99.90
5280;DHT22;2663;53.588;10.010;2022-12-29T15:57:58;9.70;99.90
5280;DHT22;2663;53.588;10.010;2022-12-29T16:00:31;9.60;99.90
5280;DHT22;2663;53.588;10.010;2022-12-29T16:03:00;9.50;99.90
5280;DHT22;2663;53.588;10.010;2022-12-29T16:05:33;9.50;99.90
5280;DHT22;2663;53.588;10.010;2022-12-29T16:08:00;9.50;99.90
5280;DHT22;2663;53.588;10.010;2022-12-29T16:10:38;9.40;99.90
5280;DHT22;2663;53.588;10.010;2022-12-29T16:13:20;9.50;99.90
5280;DHT22;2663;53.588;10.010;2022-12-29T16:15:51;9.40;99.90
5280;DHT22;2663;53.588;10.010;2022-12-29T16:18:34;9.50;99.90
5280;DHT22;2663;53.588;10.010;2022-12-29T16:21:03;9.30;99.90
5280;DHT22;2663;53.588;10.010;2022-12-29T16:23:31;9.20;99.90
5280;DHT22;2663;53.588;10.010;2022-12-29T16:25:59;9.20;99.90
5280;DHT22;2663;53.588;10.010;2022-12-29T16:28:44;9.20;99.90
5280;DHT22;2663;53.588;10.010;2022-12-29T16:31:21;9.30;99.90
5280;DHT22;2663;53.588;10.010;2022-12-29T16:33:53;9.30;99.90
5280;DHT22;2663;53.588;10.010;2022-12-29T16:36:29;9.30;99.90
5280;DHT22;2663;53.588;10.010;2022-12-29T16:39:38;9.30;99.90
5280;DHT22;2663;53.588;10.010;2022-12-29T16:50:32;9.30;99.90
5280;DHT22;2663;53.588;10.010;2022-12-29T16:53:00;9.40;99.90
5280;DHT22;2663;53.588;10.010;2022-12-29T16:55:26;9.40;99.90
5280;DHT22;2663;53.588;10.010;2022-12-29T16:57:54;9.40;99.90
5280;DHT22;2663;53.588;10.010;2022-12-29T17:00:25;9.50;99.90
5280;DHT22;2663;53.588;10.010;2022-12-29T17:02:57;9.40;99.90
5280;DHT22;2663;53.588;10.010;2022-12-29T17:05:24;9.50;99.90
5280;DHT22;2663;53.588;10.010;2022-12-29T17:07:51;9.60;99.90
5280;DHT22;2663;53.588;10.010;2022-12-29T17:10:19;9.60;99.90
5280;DHT22;2663;53.588;10.010;2022-12-29T17:12:47;9.60;99.90
5280;DHT22;2663;53.588;10.010;2022-12-29T17:15:19;9.60;99.90
5280;DHT22;2663;53.588;10.010;2022-12-29T17:17:49;9.60;99.90
5280;DHT22;2663;53.588;10.010;2022-12-29T17:20:25;9.60;99.90
5280;DHT22;2663;53.588;10.010;2022-12-29T17:22:52;9.50;99.90
5280;DHT22;2663;53.588;10.010;2022-12-29T17:25:28;9.60;99.90
5280;DHT22;2663;53.588;10.010;2022-12-29T17:28:00;9.60;99.90
5280;DHT22;2663;53.588;10.010;2022-12-29T17:30:29;8.30;99.90
5280;DHT22;2663;53.588;10.010;2022-12-29T17:33:06;9.60;99.90
5280;DHT22;2663;53.588;10.010;2022-12-29T17:35:36;9.70;99.90
5280;DHT22;2663;53.588;10.010;2022-12-29T17:38:10;10.00;99.90
5280;DHT22;2663;53.588;10.010;2022-12-29T17:40:40;10.00;99.90
5280;DHT22;2663;53.588;10.010;2022-12-29T17:43:11;10.10;99.90
5280;DHT22;2663;53.588;10.010;2022-12-29T17:45:40;10.00;99.90
5280;DHT22;2663;53.588;10.010;2022-12-29T17:48:15;10.00;99.90
5280;DHT22;2663;53.588;10.010;2022-12-29T17:50:43;9.90;99.90
5280;DHT22;2663;53.588;10.010;2022-12-29T17:53:23;9.90;99.90
5280;DHT22;2663;53.588;10.010;2022-12-29T17:55:50;9.90;99.90
5280;DHT22;2663;53.588;10.010;2022-12-29T17:58:23;10.00;99.90
5280;DHT22;2663;53.588;10.010;2022-12-29T18:00:55;10.00;99.90
5280;DHT22;2663;53.588;10.010;2022-12-29T18:03:29;10.00;99.90
5280;DHT22;2663;53.588;10.010;2022-12-29T18:05:56;9.60;99.90
5280;DHT22;2663;53.588;10.010;2022-12-29T18:08:23;9.90;99.90
5280;DHT22;2663;53.588;10.010;2022-12-29T18:10:52;9.90;99.90
5280;DHT22;2663;53.588;10.010;2022-12-29T18:13:25;10.00;99.90
5280;DHT22;2663;53.588;10.010;2022-12-29T18:16:01;9.90;99.90
5280;DHT22;2663;53.588;10.010;2022-12-29T18:18:28;9.90;99.90
5280;DHT22;2663;53.588;10.010;2022-12-29T18:20:58;8.70;99.90